sensor_id;sensor_type;location;lat;lon;timestamp;pressure;altitude;pressure_sealevel;temperature;humidity
9676;BME280;4876;42.656;23.292;2023-05-23T00:01:20;94229.69;;;12.46;99.90
9676;BME280;4876;42.656;23.292;2023-05-23T00:03:47;94227.13;;;12.37;98.79
9676;BME280;4876;42.656;23.292;2023-05-23T00:06:18;94233.22;;;12.50;96.30
9676;BME280;4876;42.656;23.292;2023-05-23T00:08:46;94220.69;;;12.47;96.60
9676;BME280;4876;42.656;23.292;2023-05-23T00:11:15;94218.75;;;12.56;95.27
9676;BME280;4876;42.656;23.292;2023-05-23T00:13:43;94212.47;;;12.49;95.43
9676;BME280;4876;42.656;23.292;2023-05-23T00:16:10;94219.38;;;12.53;96.14
9676;BME280;4876;42.656;23.292;2023-05-23T00:18:37;94207.38;;;12.44;93.73
9676;BME280;4876;42.656;23.292;2023-05-23T00:21:07;94219.22;;;12.37;94.37
9676;BME280;4876;42.656;23.292;2023-05-23T00:23:35;94219.03;;;12.22;95.76
9676;BME280;4876;42.656;23.292;2023-05-23T00:26:02;94218.41;;;12.25;95.90
9676;BME280;4876;42.656;23.292;2023-05-23T00:28:30;94212.72;;;12.14;95.69
9676;BME280;4876;42.656;23.292;2023-05-23T00:30:57;94212.97;;;12.21;96.28
9676;BME280;4876;42.656;23.292;2023-05-23T00:33:24;94211.44;;;12.20;96.24
9676;BME280;4876;42.656;23.292;2023-05-23T00:35:51;94210.50;;;12.25;97.00
9676;BME280;4876;42.656;23.292;2023-05-23T00:38:18;94220.03;;;12.29;96.70
9676;BME280;4876;42.656;23.292;2023-05-23T00:40:44;94219.09;;;12.34;96.86
9676;BME280;4876;42.656;23.292;2023-05-23T00:43:12;94224.03;;;12.35;96.54
9676;BME280;4876;42.656;23.292;2023-05-23T00:45:41;94218.91;;;12.39;96.93
9676;BME280;4876;42.656;23.292;2023-05-23T00:48:08;94217.59;;;12.45;96.00
9676;BME280;4876;42.656;23.292;2023-05-23T00:50:36;94214.78;;;12.50;94.25
9676;BME280;4876;42.656;23.292;2023-05-23T00:53:03;94214.63;;;12.47;94.16
9676;BME280;4876;42.656;23.292;2023-05-23T00:55:31;94211.81;;;12.52;94.12
9676;BME280;4876;42.656;23.292;2023-05-23T00:57:58;94217.97;;;12.56;93.05
9676;BME280;4876;42.656;23.292;2023-05-23T01:00:26;94212.47;;;12.49;93.60
9676;BME280;4876;42.656;23.292;2023-05-23T01:02:55;94223.00;;;12.49;93.72
9676;BME280;4876;42.656;23.292;2023-05-23T01:05:22;94219.91;;;12.47;94.12
9676;BME280;4876;42.656;23.292;2023-05-23T01:07:50;94213.09;;;12.46;92.84
9676;BME280;4876;42.656;23.292;2023-05-23T01:10:19;94213.09;;;12.46;91.95
9676;BME280;4876;42.656;23.292;2023-05-23T01:12:57;94224.50;;;12.37;92.26
9676;BME280;4876;42.656;23.292;2023-05-23T01:15:34;94225.78;;;12.31;92.91
9676;BME280;4876;42.656;23.292;2023-05-23T01:18:08;94230.34;;;12.22;93.90
9676;BME280;4876;42.656;23.292;2023-05-23T01:20:39;94224.22;;;12.09;95.02
9676;BME280;4876;42.656;23.292;2023-05-23T01:23:20;94221.75;;;12.13;95.82
9676;BME280;4876;42.656;23.292;2023-05-23T01:26:03;94222.50;;;12.13;96.50
9676;BME280;4876;42.656;23.292;2023-05-23T01:28:39;94214.94;;;12.12;96.61
9676;BME280;4876;42.656;23.292;2023-05-23T01:31:09;94214.28;;;12.15;96.33
9676;BME280;4876;42.656;23.292;2023-05-23T01:33:37;94215.19;;;12.19;94.44
9676;BME280;4876;42.656;23.292;2023-05-23T01:36:04;94212.88;;;12.18;93.99
9676;BME280;4876;42.656;23.292;2023-05-23T01:38:31;94226.31;;;11.74;96.08
9676;BME280;4876;42.656;23.292;2023-05-23T01:40:58;94217.06;;;11.68;98.47
9676;BME280;4876;42.656;23.292;2023-05-23T01:43:25;94218.63;;;11.60;100.00
9676;BME280;4876;42.656;23.292;2023-05-23T01:45:54;94208.41;;;11.59;100.00
9676;BME280;4876;42.656;23.292;2023-05-23T01:48:23;94215.47;;;11.67;100.00
9676;BME280;4876;42.656;23.292;2023-05-23T01:50:52;94223.78;;;11.78;100.00
9676;BME280;4876;42.656;23.292;2023-05-23T01:53:21;94208.16;;;11.73;99.64
9676;BME280;4876;42.656;23.292;2023-05-23T01:55:49;94205.25;;;11.74;100.00
9676;BME280;4876;42.656;23.292;2023-05-23T01:58:16;94205.53;;;11.81;98.34
9676;BME280;4876;42.656;23.292;2023-05-23T02:00:43;94194.50;;;11.79;97.73
9676;BME280;4876;42.656;23.292;2023-05-23T02:10:20;94207.41;;;11.72;99.27
9676;BME280;4876;42.656;23.292;2023-05-23T02:12:47;94205.94;;;11.63;99.03
9676;BME280;4876;42.656;23.292;2023-05-23T02:15:14;94210.13;;;11.55;99.90
9676;BME280;4876;42.656;23.292;2023-05-23T02:17:41;94212.91;;;11.58;99.93
9676;BME280;4876;42.656;23.292;2023-05-23T02:20:09;94209.31;;;11.63;99.23
9676;BME280;4876;42.656;23.292;2023-05-23T02:22:37;94222.81;;;11.62;99.06
9676;BME280;4876;42.656;23.292;2023-05-23T02:25:05;94214.72;;;11.67;99.61
9676;BME280;4876;42.656;23.292;2023-05-23T02:27:34;94208.06;;;11.69;98.93
9676;BME280;4876;42.656;23.292;2023-05-23T02:30:00;94199.81;;;11.71;98.67
9676;BME280;4876;42.656;23.292;2023-05-23T02:32:29;94201.50;;;11.75;98.40
9676;BME280;4876;42.656;23.292;2023-05-23T02:34:56;94195.00;;;11.81;97.19
9676;BME280;4876;42.656;23.292;2023-05-23T02:37:24;94197.44;;;11.78;97.84
9676;BME280;4876;42.656;23.292;2023-05-23T02:39:50;94196.00;;;11.89;97.71
9676;BME280;4876;42.656;23.292;2023-05-23T02:42:17;94195.88;;;11.85;98.71
9676;BME280;4876;42.656;23.292;2023-05-23T02:44:45;94189.22;;;11.79;97.77
9676;BME280;4876;42.656;23.292;2023-05-23T02:47:12;94186.97;;;11.69;98.35
9676;BME280;4876;42.656;23.292;2023-05-23T02:49:39;94191.97;;;11.62;99.50
9676;BME280;4876;42.656;23.292;2023-05-23T02:52:06;94201.16;;;11.56;100.00
9676;BME280;4876;42.656;23.292;2023-05-23T02:54:32;94198.72;;;11.42;98.19
9676;BME280;4876;42.656;23.292;2023-05-23T02:56:59;94195.69;;;11.31;100.00
9676;BME280;4876;42.656;23.292;2023-05-23T02:59:26;94198.84;;;11.25;100.00
9676;BME280;4876;42.656;23.292;2023-05-23T03:01:54;94194.34;;;11.25;100.00
9676;BME280;4876;42.656;23.292;2023-05-23T03:04:21;94198.19;;;11.28;100.00
9676;BME280;4876;42.656;23.292;2023-05-23T03:06:48;94199.88;;;11.32;100.00
9676;BME280;4876;42.656;23.292;2023-05-23T03:09:18;94207.59;;;11.38;100.00
9676;BME280;4876;42.656;23.292;2023-05-23T03:11:45;94205.41;;;11.40;100.00
9676;BME280;4876;42.656;23.292;2023-05-23T03:14:12;94173.13;;;11.22;100.00
9676;BME280;4876;42.656;23.292;2023-05-23T03:16:39;94198.22;;;11.49;100.00
9676;BME280;4876;42.656;23.292;2023-05-23T03:19:07;94202.69;;;11.57;100.00
9676;BME280;4876;42.656;23.292;2023-05-23T03:21:34;94205.59;;;11.64;100.00
9676;BME280;4876;42.656;23.292;2023-05-23T03:24:01;94207.56;;;11.67;100.00
9676;BME280;4876;42.656;23.292;2023-05-23T03:26:27;94206.69;;;11.63;100.00
9676;BME280;4876;42.656;23.292;2023-05-23T03:28:55;94212.75;;;11.55;100.00
9676;BME280;4876;42.656;23.292;2023-05-23T03:31:22;94205.84;;;11.42;100.00
9676;BME280;4876;42.656;23.292;2023-05-23T03:33:49;94208.28;;;11.55;100.00
9676;BME280;4876;42.656;23.292;2023-05-23T03:36:17;94206.69;;;11.63;100.00
9676;BME280;4876;42.656;23.292;2023-05-23T03:38:44;94219.22;;;11.66;100.00
9676;BME280;4876;42.656;23.292;2023-05-23T03:41:10;94224.56;;;11.78;100.00
9676;BME280;4876;42.656;23.292;2023-05-23T03:43:37;94223.69;;;11.74;100.00
9676;BME280;4876;42.656;23.292;2023-05-23T03:46:04;94220.06;;;11.79;100.00
9676;BME280;4876;42.656;23.292;2023-05-23T03:48:31;94231.19;;;11.55;100.00
9676;BME280;4876;42.656;23.292;2023-05-23T03:50:58;94228.22;;;11.27;100.00
9676;BME280;4876;42.656;23.292;2023-05-23T03:53:26;94228.22;;;11.27;100.00
9676;BME280;4876;42.656;23.292;2023-05-23T03:55:52;94220.66;;;11.25;100.00
9676;BME280;4876;42.656;23.292;2023-05-23T03:58:19;94233.06;;;11.16;100.00
9676;BME280;4876;42.656;23.292;2023-05-23T04:00:46;94231.19;;;11.25;100.00
9676;BME280;4876;42.656;23.292;2023-05-23T04:03:13;94234.56;;;11.35;100.00
9676;BME280;4876;42.656;23.292;2023-05-23T04:05:41;94233.81;;;11.25;100.00
9676;BME280;4876;42.656;23.292;2023-05-23T04:08:08;94228.41;;;11.22;100.00
9676;BME280;4876;42.656;23.292;2023-05-23T04:10:36;94221.22;;;11.40;100.00
9676;BME280;4876;42.656;23.292;2023-05-23T04:13:03;94232.84;;;11.68;100.00
9676;BME280;4876;42.656;23.292;2023-05-23T04:15:30;94224.34;;;11.63;100.00
9676;BME280;4876;42.656;23.292;2023-05-23T04:17:58;94201.25;;;11.39;100.00
9676;BME280;4876;42.656;23.292;2023-05-23T04:20:25;94228.97;;;11.36;100.00
9676;BME280;4876;42.656;23.292;2023-05-23T04:22:52;94221.94;;;11.19;100.00
9676;BME280;4876;42.656;23.292;2023-05-23T04:25:19;94227.28;;;11.31;100.00
9676;BME280;4876;42.656;23.292;2023-05-23T04:27:47;94214.69;;;11.46;100.00
9676;BME280;4876;42.656;23.292;2023-05-23T04:30:14;94221.03;;;11.74;100.00
9676;BME280;4876;42.656;23.292;2023-05-23T04:32:42;94227.75;;;11.63;100.00
9676;BME280;4876;42.656;23.292;2023-05-23T04:35:09;94226.31;;;11.74;100.00
9676;BME280;4876;42.656;23.292;2023-05-23T04:37:36;94227.19;;;11.49;100.00
9676;BME280;4876;42.656;23.292;2023-05-23T04:40:04;94233.00;;;11.33;100.00
9676;BME280;4876;42.656;23.292;2023-05-23T04:42:31;94231.59;;;11.66;100.00
9676;BME280;4876;42.656;23.292;2023-05-23T04:44:59;94229.94;;;11.61;100.00
9676;BME280;4876;42.656;23.292;2023-05-23T04:47:27;94229.38;;;11.47;100.00
9676;BME280;4876;42.656;23.292;2023-05-23T04:49:59;94234.66;;;11.47;100.00
9676;BME280;4876;42.656;23.292;2023-05-23T04:52:26;94238.75;;;11.65;100.00
9676;BME280;4876;42.656;23.292;2023-05-23T04:54:54;94245.44;;;11.54;100.00
9676;BME280;4876;42.656;23.292;2023-05-23T04:57:20;94251.69;;;11.49;100.00
9676;BME280;4876;42.656;23.292;2023-05-23T04:59:47;94249.19;;;11.53;100.00
9676;BME280;4876;42.656;23.292;2023-05-23T05:02:15;94244.44;;;11.67;100.00
9676;BME280;4876;42.656;23.292;2023-05-23T05:04:42;94248.38;;;11.61;100.00
9676;BME280;4876;42.656;23.292;2023-05-23T05:07:10;94246.19;;;11.63;100.00
9676;BME280;4876;42.656;23.292;2023-05-23T05:09:36;94249.72;;;11.67;100.00
9676;BME280;4876;42.656;23.292;2023-05-23T05:12:03;94257.16;;;11.74;100.00
9676;BME280;4876;42.656;23.292;2023-05-23T05:14:30;94255.66;;;11.64;100.00
9676;BME280;4876;42.656;23.292;2023-05-23T05:16:57;94261.09;;;11.59;100.00
9676;BME280;4876;42.656;23.292;2023-05-23T05:19:25;94260.41;;;11.71;100.00
9676;BME280;4876;42.656;23.292;2023-05-23T05:21:52;94255.84;;;11.89;100.00
9676;BME280;4876;42.656;23.292;2023-05-23T05:24:18;94259.00;;;11.82;100.00
9676;BME280;4876;42.656;23.292;2023-05-23T05:26:47;94255.09;;;11.79;100.00
9676;BME280;4876;42.656;23.292;2023-05-23T05:29:14;94243.09;;;11.61;100.00
9676;BME280;4876;42.656;23.292;2023-05-23T05:31:41;94257.06;;;11.91;100.00
9676;BME280;4876;42.656;23.292;2023-05-23T05:34:09;94255.03;;;11.97;100.00
9676;BME280;4876;42.656;23.292;2023-05-23T05:36:38;94248.47;;;12.03;100.00
9676;BME280;4876;42.656;23.292;2023-05-23T05:39:10;94262.59;;;11.98;100.00
9676;BME280;4876;42.656;23.292;2023-05-23T05:41:37;94261.81;;;11.98;100.00
9676;BME280;4876;42.656;23.292;2023-05-23T05:44:04;94271.25;;;12.07;100.00
9676;BME280;4876;42.656;23.292;2023-05-23T05:46:31;94268.16;;;12.05;100.00
9676;BME280;4876;42.656;23.292;2023-05-23T05:48:58;94272.00;;;12.08;100.00
9676;BME280;4876;42.656;23.292;2023-05-23T05:51:25;94261.72;;;12.15;100.00
9676;BME280;4876;42.656;23.292;2023-05-23T05:53:53;94272.22;;;12.24;100.00
9676;BME280;4876;42.656;23.292;2023-05-23T05:56:20;94269.06;;;12.30;100.00
9676;BME280;4876;42.656;23.292;2023-05-23T05:58:47;94269.66;;;12.36;100.00
9676;BME280;4876;42.656;23.292;2023-05-23T06:01:14;94271.25;;;12.07;100.00
9676;BME280;4876;42.656;23.292;2023-05-23T06:03:42;94265.19;;;12.07;100.00
9676;BME280;4876;42.656;23.292;2023-05-23T06:06:08;94261.09;;;12.18;100.00
9676;BME280;4876;42.656;23.292;2023-05-23T06:08:35;94260.84;;;12.32;100.00
9676;BME280;4876;42.656;23.292;2023-05-23T06:11:04;94251.31;;;12.39;100.00
9676;BME280;4876;42.656;23.292;2023-05-23T06:13:30;94256.44;;;12.57;100.00
9676;BME280;4876;42.656;23.292;2023-05-23T06:15:57;94265.50;;;12.47;100.00
9676;BME280;4876;42.656;23.292;2023-05-23T06:18:24;94270.16;;;12.50;100.00
9676;BME280;4876;42.656;23.292;2023-05-23T06:20:51;94258.09;;;12.82;100.00
9676;BME280;4876;42.656;23.292;2023-05-23T06:23:17;94275.69;;;12.90;100.00
9676;BME280;4876;42.656;23.292;2023-05-23T06:25:44;94264.53;;;13.06;100.00
9676;BME280;4876;42.656;23.292;2023-05-23T06:28:12;94267.13;;;13.27;100.00
9676;BME280;4876;42.656;23.292;2023-05-23T06:30:39;94279.94;;;13.49;100.00
9676;BME280;4876;42.656;23.292;2023-05-23T06:33:06;94279.47;;;13.59;100.00
9676;BME280;4876;42.656;23.292;2023-05-23T06:35:33;94280.38;;;13.88;100.00
9676;BME280;4876;42.656;23.292;2023-05-23T06:38:00;94281.34;;;14.08;100.00
9676;BME280;4876;42.656;23.292;2023-05-23T06:40:27;94278.28;;;14.18;100.00
9676;BME280;4876;42.656;23.292;2023-05-23T06:42:54;94280.69;;;14.23;100.00
9676;BME280;4876;42.656;23.292;2023-05-23T06:45:22;94270.16;;;14.51;98.56
9676;BME280;4876;42.656;23.292;2023-05-23T06:47:49;94274.81;;;14.54;99.59
9676;BME280;4876;42.656;23.292;2023-05-23T06:50:16;94266.81;;;14.66;98.69
9676;BME280;4876;42.656;23.292;2023-05-23T06:52:44;94271.34;;;14.66;99.38
9676;BME280;4876;42.656;23.292;2023-05-23T06:55:11;94263.34;;;14.78;97.53
9676;BME280;4876;42.656;23.292;2023-05-23T06:57:42;94264.34;;;14.33;100.00
9676;BME280;4876;42.656;23.292;2023-05-23T07:00:10;94260.34;;;15.07;95.88
9676;BME280;4876;42.656;23.292;2023-05-23T07:02:39;94260.44;;;15.27;93.79
9676;BME280;4876;42.656;23.292;2023-05-23T07:05:06;94259.50;;;15.19;95.40
9676;BME280;4876;42.656;23.292;2023-05-23T07:07:33;94262.72;;;15.72;89.97
9676;BME280;4876;42.656;23.292;2023-05-23T07:10:00;94259.38;;;15.91;90.51
9676;BME280;4876;42.656;23.292;2023-05-23T07:12:27;94259.28;;;16.23;86.25
9676;BME280;4876;42.656;23.292;2023-05-23T07:14:53;94247.84;;;16.57;85.43
9676;BME280;4876;42.656;23.292;2023-05-23T07:17:20;94252.03;;;16.39;86.46
9676;BME280;4876;42.656;23.292;2023-05-23T07:19:49;94239.69;;;17.05;83.39
9676;BME280;4876;42.656;23.292;2023-05-23T07:22:16;94244.91;;;17.01;85.31
9676;BME280;4876;42.656;23.292;2023-05-23T07:24:42;94238.19;;;16.84;85.34
9676;BME280;4876;42.656;23.292;2023-05-23T07:27:09;94242.13;;;17.59;81.13
9676;BME280;4876;42.656;23.292;2023-05-23T07:29:36;94231.59;;;17.89;83.25
9676;BME280;4876;42.656;23.292;2023-05-23T07:32:03;94232.94;;;18.33;79.08
9676;BME280;4876;42.656;23.292;2023-05-23T07:34:30;94231.59;;;18.46;77.12
9676;BME280;4876;42.656;23.292;2023-05-23T07:36:58;94236.25;;;18.56;75.10
9676;BME280;4876;42.656;23.292;2023-05-23T07:39:25;94231.91;;;18.41;75.37
9676;BME280;4876;42.656;23.292;2023-05-23T07:41:52;94234.28;;;18.49;73.73
9676;BME280;4876;42.656;23.292;2023-05-23T07:44:19;94231.72;;;18.26;74.82
9676;BME280;4876;42.656;23.292;2023-05-23T07:46:46;94230.31;;;18.66;71.22
9676;BME280;4876;42.656;23.292;2023-05-23T07:49:13;94225.13;;;18.77;72.04
9676;BME280;4876;42.656;23.292;2023-05-23T07:51:39;94227.47;;;18.52;75.30
9676;BME280;4876;42.656;23.292;2023-05-23T07:54:08;94226.28;;;18.79;74.17
9676;BME280;4876;42.656;23.292;2023-05-23T07:56:35;94213.47;;;18.89;73.07
9676;BME280;4876;42.656;23.292;2023-05-23T07:59:03;94219.00;;;19.10;72.63
9676;BME280;4876;42.656;23.292;2023-05-23T08:01:30;94227.91;;;18.88;71.69
9676;BME280;4876;42.656;23.292;2023-05-23T08:03:57;94214.88;;;18.79;72.41
9676;BME280;4876;42.656;23.292;2023-05-23T08:06:24;94220.00;;;18.95;71.92
9676;BME280;4876;42.656;23.292;2023-05-23T08:08:50;94220.19;;;18.79;72.50
9676;BME280;4876;42.656;23.292;2023-05-23T08:11:19;94219.44;;;18.78;72.35
9676;BME280;4876;42.656;23.292;2023-05-23T08:13:45;94209.50;;;18.75;71.61
9676;BME280;4876;42.656;23.292;2023-05-23T08:16:12;94213.53;;;18.96;70.51
9676;BME280;4876;42.656;23.292;2023-05-23T08:18:39;94211.81;;;19.18;69.78
9676;BME280;4876;42.656;23.292;2023-05-23T08:21:06;94214.81;;;19.13;67.37
9676;BME280;4876;42.656;23.292;2023-05-23T08:23:32;94211.59;;;19.33;70.91
9676;BME280;4876;42.656;23.292;2023-05-23T08:25:59;94221.66;;;19.51;72.73
9676;BME280;4876;42.656;23.292;2023-05-23T08:28:27;94224.53;;;19.31;69.39
9676;BME280;4876;42.656;23.292;2023-05-23T08:30:54;94221.91;;;18.98;70.04
9676;BME280;4876;42.656;23.292;2023-05-23T08:33:22;94223.38;;;19.29;71.20
9676;BME280;4876;42.656;23.292;2023-05-23T08:35:49;94215.31;;;19.25;66.85
9676;BME280;4876;42.656;23.292;2023-05-23T08:38:16;94218.09;;;19.36;66.26
9676;BME280;4876;42.656;23.292;2023-05-23T08:40:49;94218.41;;;19.27;72.89
9676;BME280;4876;42.656;23.292;2023-05-23T08:43:16;94204.50;;;19.52;72.83
9676;BME280;4876;42.656;23.292;2023-05-23T08:45:46;94208.03;;;19.19;72.06
9676;BME280;4876;42.656;23.292;2023-05-23T08:48:16;94207.69;;;19.20;67.35
9676;BME280;4876;42.656;23.292;2023-05-23T08:50:46;94217.03;;;19.48;69.76
9676;BME280;4876;42.656;23.292;2023-05-23T08:53:14;94207.13;;;19.45;64.56
9676;BME280;4876;42.656;23.292;2023-05-23T08:55:45;94209.94;;;19.59;64.20
9676;BME280;4876;42.656;23.292;2023-05-23T08:58:13;94212.53;;;19.52;66.21
9676;BME280;4876;42.656;23.292;2023-05-23T09:00:41;94180.28;;;19.71;62.84
9676;BME280;4876;42.656;23.292;2023-05-23T09:03:10;94206.34;;;19.92;63.68
9676;BME280;4876;42.656;23.292;2023-05-23T09:05:38;94190.16;;;19.67;62.32
9676;BME280;4876;42.656;23.292;2023-05-23T09:08:05;94203.94;;;19.73;61.96
9676;BME280;4876;42.656;23.292;2023-05-23T09:10:32;94203.13;;;19.69;59.95
9676;BME280;4876;42.656;23.292;2023-05-23T09:13:00;94208.97;;;19.85;61.45
9676;BME280;4876;42.656;23.292;2023-05-23T09:15:27;94210.16;;;19.87;65.06
9676;BME280;4876;42.656;23.292;2023-05-23T09:17:58;94200.03;;;20.22;60.76
9676;BME280;4876;42.656;23.292;2023-05-23T09:20:29;94194.41;;;19.72;56.85
9676;BME280;4876;42.656;23.292;2023-05-23T09:22:56;94181.72;;;19.58;56.18
9676;BME280;4876;42.656;23.292;2023-05-23T09:25:22;94198.22;;;19.71;58.48
9676;BME280;4876;42.656;23.292;2023-05-23T09:27:51;94182.81;;;19.53;60.21
9676;BME280;4876;42.656;23.292;2023-05-23T09:30:18;94189.47;;;19.77;57.42
9676;BME280;4876;42.656;23.292;2023-05-23T09:32:57;94189.63;;;20.06;59.28
9676;BME280;4876;42.656;23.292;2023-05-23T09:35:24;94185.94;;;20.28;57.45
9676;BME280;4876;42.656;23.292;2023-05-23T09:37:56;94195.22;;;20.49;54.56
9676;BME280;4876;42.656;23.292;2023-05-23T09:40:28;94193.31;;;20.46;53.59
9676;BME280;4876;42.656;23.292;2023-05-23T09:43:01;94198.19;;;20.36;56.45
9676;BME280;4876;42.656;23.292;2023-05-23T09:45:28;94188.75;;;20.53;54.36
9676;BME280;4876;42.656;23.292;2023-05-23T09:47:55;94186.28;;;20.16;52.74
9676;BME280;4876;42.656;23.292;2023-05-23T09:50:24;94185.94;;;20.28;54.45
9676;BME280;4876;42.656;23.292;2023-05-23T09:52:51;94174.19;;;20.43;54.46
9676;BME280;4876;42.656;23.292;2023-05-23T09:55:20;94172.44;;;20.83;51.53
9676;BME280;4876;42.656;23.292;2023-05-23T09:57:48;94176.25;;;20.86;50.41
9676;BME280;4876;42.656;23.292;2023-05-23T10:00:19;94170.06;;;20.53;49.53
9676;BME280;4876;42.656;23.292;2023-05-23T10:03:04;94175.78;;;20.55;51.78
9676;BME280;4876;42.656;23.292;2023-05-23T10:05:37;94172.44;;;20.83;51.51
9676;BME280;4876;42.656;23.292;2023-05-23T10:08:08;94169.00;;;20.90;50.38
9676;BME280;4876;42.656;23.292;2023-05-23T10:13:53;94169.78;;;20.90;49.56
9676;BME280;4876;42.656;23.292;2023-05-23T10:16:26;94169.78;;;21.05;48.69
9676;BME280;4876;42.656;23.292;2023-05-23T10:18:57;94167.50;;;21.00;50.81
9676;BME280;4876;42.656;23.292;2023-05-23T10:21:29;94171.31;;;20.95;46.94
9676;BME280;4876;42.656;23.292;2023-05-23T10:23:58;94170.50;;;20.77;48.24
9676;BME280;4876;42.656;23.292;2023-05-23T10:26:27;94175.78;;;20.52;48.12
9676;BME280;4876;42.656;23.292;2023-05-23T10:28:56;94162.44;;;20.66;49.50
9676;BME280;4876;42.656;23.292;2023-05-23T10:31:23;94157.19;;;20.94;48.35
9676;BME280;4876;42.656;23.292;2023-05-23T10:33:55;94160.25;;;21.07;49.27
9676;BME280;4876;42.656;23.292;2023-05-23T10:36:28;94156.81;;;21.14;49.58
9676;BME280;4876;42.656;23.292;2023-05-23T10:39:05;94152.59;;;20.98;47.50
9676;BME280;4876;42.656;23.292;2023-05-23T10:41:42;94142.25;;;20.79;44.46
9676;BME280;4876;42.656;23.292;2023-05-23T10:44:14;94152.22;;;20.96;46.37
9676;BME280;4876;42.656;23.292;2023-05-23T10:46:50;94143.06;;;20.87;49.12
9676;BME280;4876;42.656;23.292;2023-05-23T10:49:17;94147.63;;;21.04;47.38
9676;BME280;4876;42.656;23.292;2023-05-23T10:51:48;94140.00;;;21.03;48.96
9676;BME280;4876;42.656;23.292;2023-05-23T10:54:17;94151.44;;;20.96;46.28
9676;BME280;4876;42.656;23.292;2023-05-23T10:56:45;94144.13;;;20.68;46.58
9676;BME280;4876;42.656;23.292;2023-05-23T10:59:19;94147.59;;;20.68;48.50
9676;BME280;4876;42.656;23.292;2023-05-23T11:01:50;94142.97;;;20.51;46.53
9676;BME280;4876;42.656;23.292;2023-05-23T11:04:24;94121.66;;;20.90;46.50
9676;BME280;4876;42.656;23.292;2023-05-23T11:06:52;94130.09;;;21.14;45.66
9676;BME280;4876;42.656;23.292;2023-05-23T11:09:20;94129.31;;;21.17;44.84
9676;BME280;4876;42.656;23.292;2023-05-23T11:11:55;94127.41;;;21.21;45.80
9676;BME280;4876;42.656;23.292;2023-05-23T11:14:51;94127.41;;;21.28;45.92
9676;BME280;4876;42.656;23.292;2023-05-23T11:17:29;94130.09;;;21.14;45.66
9676;BME280;4876;42.656;23.292;2023-05-23T11:19:58;94123.97;;;21.10;44.59
9676;BME280;4876;42.656;23.292;2023-05-23T11:22:26;94134.66;;;21.17;44.08
9676;BME280;4876;42.656;23.292;2023-05-23T11:24:54;94123.94;;;21.24;45.72
9676;BME280;4876;42.656;23.292;2023-05-23T11:27:27;94126.25;;;21.65;46.31
9676;BME280;4876;42.656;23.292;2023-05-23T11:29:59;94126.97;;;21.83;43.40
9676;BME280;4876;42.656;23.292;2023-05-23T11:32:30;94101.03;;;21.62;43.14
9676;BME280;4876;42.656;23.292;2023-05-23T11:35:00;94118.63;;;21.45;44.01
9676;BME280;4876;42.656;23.292;2023-05-23T11:37:28;94115.56;;;21.26;44.11
9676;BME280;4876;42.656;23.292;2023-05-23T11:39:55;94117.09;;;21.59;45.37
9676;BME280;4876;42.656;23.292;2023-05-23T11:42:22;94117.88;;;21.41;42.50
9676;BME280;4876;42.656;23.292;2023-05-23T11:44:51;94113.66;;;21.19;44.07
9676;BME280;4876;42.656;23.292;2023-05-23T11:47:18;94108.28;;;21.15;43.28
9676;BME280;4876;42.656;23.292;2023-05-23T11:49:46;94098.00;;;21.32;45.18
9676;BME280;4876;42.656;23.292;2023-05-23T11:52:13;94114.03;;;21.60;44.68
9676;BME280;4876;42.656;23.292;2023-05-23T11:54:40;94112.47;;;21.70;41.64
9676;BME280;4876;42.656;23.292;2023-05-23T11:57:07;94107.88;;;21.77;43.23
9676;BME280;4876;42.656;23.292;2023-05-23T11:59:34;94111.75;;;21.52;42.46
9676;BME280;4876;42.656;23.292;2023-05-23T12:02:05;94098.00;;;21.35;42.27
9676;BME280;4876;42.656;23.292;2023-05-23T12:04:33;94094.13;;;21.68;43.52
9676;BME280;4876;42.656;23.292;2023-05-23T12:07:04;94098.63;;;22.03;43.13
9676;BME280;4876;42.656;23.292;2023-05-23T12:09:31;94102.06;;;22.04;43.64
9676;BME280;4876;42.656;23.292;2023-05-23T12:12:06;94100.53;;;22.03;42.90
9676;BME280;4876;42.656;23.292;2023-05-23T12:14:33;94085.28;;;21.89;43.43
9676;BME280;4876;42.656;23.292;2023-05-23T12:17:00;94092.25;;;21.58;42.96
9676;BME280;4876;42.656;23.292;2023-05-23T12:19:28;94087.69;;;21.41;44.28
9676;BME280;4876;42.656;23.292;2023-05-23T12:21:55;94080.38;;;21.70;44.80
9676;BME280;4876;42.656;23.292;2023-05-23T12:24:22;94081.44;;;21.90;43.41
9676;BME280;4876;42.656;23.292;2023-05-23T12:26:50;94081.06;;;21.88;42.07
9676;BME280;4876;42.656;23.292;2023-05-23T12:29:18;94049.44;;;21.47;43.85
9676;BME280;4876;42.656;23.292;2023-05-23T12:31:49;94074.19;;;21.87;43.22
9676;BME280;4876;42.656;23.292;2023-05-23T12:34:18;94073.47;;;21.76;43.18
9676;BME280;4876;42.656;23.292;2023-05-23T12:36:47;94071.13;;;21.85;44.60
9676;BME280;4876;42.656;23.292;2023-05-23T12:39:14;94052.38;;;21.85;41.20
9676;BME280;4876;42.656;23.292;2023-05-23T12:41:41;94063.44;;;22.01;43.29
9676;BME280;4876;42.656;23.292;2023-05-23T12:44:14;94059.72;;;21.74;42.42
9676;BME280;4876;42.656;23.292;2023-05-23T12:46:42;94062.69;;;21.94;42.59
9676;BME280;4876;42.656;23.292;2023-05-23T12:49:09;94069.56;;;22.02;42.95
9676;BME280;4876;42.656;23.292;2023-05-23T12:51:37;94051.19;;;22.11;43.87
9676;BME280;4876;42.656;23.292;2023-05-23T12:54:05;94064.16;;;22.20;43.08
9676;BME280;4876;42.656;23.292;2023-05-23T12:56:33;94048.13;;;22.06;41.11
9676;BME280;4876;42.656;23.292;2023-05-23T12:59:01;94047.38;;;21.98;40.17
9676;BME280;4876;42.656;23.292;2023-05-23T13:01:28;94043.53;;;22.02;41.87
9676;BME280;4876;42.656;23.292;2023-05-23T13:03:55;94047.72;;;22.03;41.03
9676;BME280;4876;42.656;23.292;2023-05-23T13:06:22;94035.81;;;22.26;39.89
9676;BME280;4876;42.656;23.292;2023-05-23T13:08:49;94043.34;;;22.45;40.34
9676;BME280;4876;42.656;23.292;2023-05-23T13:11:17;94039.59;;;22.32;39.13
9676;BME280;4876;42.656;23.292;2023-05-23T13:13:45;94039.25;;;22.23;38.98
9676;BME280;4876;42.656;23.292;2023-05-23T13:16:12;94037.31;;;22.23;38.69
9676;BME280;4876;42.656;23.292;2023-05-23T13:18:38;94033.44;;;22.35;37.92
9676;BME280;4876;42.656;23.292;2023-05-23T13:21:05;94048.06;;;22.20;39.49
9676;BME280;4876;42.656;23.292;2023-05-23T13:23:32;94007.63;;;21.89;40.45